Time,TemperatureF,DewpointF,PressureIn,WindDirection,WindDirectionDegrees,WindSpeedMPH,WindSpeedGustMPH,Humidity,HourlyPrecipIn,Conditions,Clouds,dailyrainin,SoftwareType,DateUTC
2013-03-27 00:02:00,48.0,-99.9,-100.00,West,271,0.0,2.0,-999,-99.99,,,-99.99,,2013-03-27 07:02:00,
2013-03-27 00:12:00,48.0,-99.9,-100.00,West,271,0.0,2.0,-999,-99.99,,,-99.99,,2013-03-27 07:12:00,
2013-03-27 00:22:00,48.0,-99.9,-100.00,West,271,0.0,2.0,-999,-99.99,,,-99.99,,2013-03-27 07:22:00,
2013-03-27 00:33:00,50.0,-99.9,-100.00,SW,225,0.0,3.0,-999,-99.99,,,-99.99,,2013-03-27 07:33:00,
2013-03-27 00:43:00,50.0,-99.9,-100.00,SW,225,0.0,3.0,-999,-99.99,,,-99.99,,2013-03-27 07:43:00,
2013-03-27 00:54:00,50.0,-99.9,-100.00,SW,225,0.0,3.0,-999,-99.99,,,-99.99,,2013-03-27 07:54:00,
2013-03-27 01:03:00,47.0,-99.9,-100.00,SW,230,2.0,3.0,-999,-99.99,,,-99.99,,2013-03-27 08:03:00,
2013-03-27 01:13:00,47.0,-99.9,-100.00,SW,230,2.0,3.0,-999,-99.99,,,-99.99,,2013-03-27 08:13:00,
2013-03-27 01:22:00,47.0,-99.9,-100.00,SW,230,2.0,3.0,-999,-99.99,,,-99.99,,2013-03-27 08:22:00,
2013-03-27 01:32:00,49.0,-99.9,-100.00,WSW,239,0.0,1.0,-999,-99.99,,,-99.99,,2013-03-27 08:32:00,
2013-03-27 01:43:00,49.0,-99.9,-100.00,WSW,239,0.0,1.0,-999,-99.99,,,-99.99,,2013-03-27 08:43:00,
2013-03-27 01:52:00,49.0,-99.9,-100.00,WSW,239,0.0,1.0,-999,-99.99,,,-99.99,,2013-03-27 08:52:00,
2013-03-27 02:00:00,48.0,-99.9,-100.00,WSW,251,2.0,4.0,-999,-99.99,,,-99.99,,2013-03-27 09:00:00,
2013-03-27 02:33:00,48.0,-99.9,-100.00,WSW,253,2.0,4.0,-999,-99.99,,,-99.99,,2013-03-27 09:33:00,
2013-03-27 02:42:00,48.0,-99.9,-100.00,WSW,253,2.0,4.0,-999,-99.99,,,-99.99,,2013-03-27 09:42:00,
2013-03-27 02:52:00,48.0,-99.9,-100.00,WSW,251,2.0,4.0,-999,-99.99,,,-99.99,,2013-03-27 09:52:00,
2013-03-27 03:23:00,47.0,-99.9,-100.00,West,266,3.0,4.0,-999,-99.99,,,-99.99,,2013-03-27 10:23:00,
2013-03-27 03:32:00,46.0,-99.9,-100.00,WSW,238,3.0,4.0,-999,-99.99,,,-99.99,,2013-03-27 10:32:00,
2013-03-27 03:42:00,46.0,-99.9,-100.00,WSW,238,3.0,4.0,-999,-99.99,,,-99.99,,2013-03-27 10:42:00,
2013-03-27 03:53:00,46.0,-99.9,-100.00,WSW,238,3.0,4.0,-999,-99.99,,,-99.99,,2013-03-27 10:53:00,
2013-03-27 04:03:00,46.0,-99.9,-100.00,South,170,1.0,2.0,-999,-99.99,,,-99.99,,2013-03-27 11:03:00,
2013-03-27 04:12:00,46.0,-99.9,-100.00,South,170,1.0,2.0,-999,-99.99,,,-99.99,,2013-03-27 11:12:00,
2013-03-27 04:20:00,43.0,-99.9,-100.00,WSW,249,2.0,2.0,-999,-99.99,,,-99.99,,2013-03-27 11:20:00,
2013-03-27 04:32:00,43.0,-99.9,-100.00,WSW,246,2.0,3.0,-999,-99.99,,,-99.99,,2013-03-27 11:32:00,
2013-03-27 04:43:00,43.0,-99.9,-100.00,WSW,246,2.0,3.0,-999,-99.99,,,-99.99,,2013-03-27 11:43:00,
2013-03-27 04:53:00,43.0,-99.9,-100.00,WSW,246,2.0,3.0,-999,-99.99,,,-99.99,,2013-03-27 11:53:00,
2013-03-27 05:03:00,43.0,-99.9,-100.00,WSW,249,2.0,2.0,-999,-99.99,,,-99.99,,2013-03-27 12:03:00,
2013-03-27 05:12:00,43.0,-99.9,-100.00,WSW,249,2.0,2.0,-999,-99.99,,,-99.99,,2013-03-27 12:12:00,
2013-03-27 05:32:00,43.0,-99.9,-100.00,West,263,2.0,5.0,-999,-99.99,,,-99.99,,2013-03-27 12:32:00,
2013-03-27 05:44:00,43.0,-99.9,-100.00,West,263,2.0,5.0,-999,-99.99,,,-99.99,,2013-03-27 12:44:00,
2013-03-27 05:52:00,43.0,-99.9,-100.00,West,263,2.0,5.0,-999,-99.99,,,-99.99,,2013-03-27 12:52:00,
2013-03-27 06:33:00,43.0,-99.9,-100.00,WSW,240,5.0,5.0,-999,-99.99,,,-99.99,,2013-03-27 13:33:00,
2013-03-27 06:42:00,43.0,-99.9,-100.00,WSW,240,5.0,5.0,-999,-99.99,,,-99.99,,2013-03-27 13:42:00,
2013-03-27 06:53:00,43.0,-99.9,-100.00,WSW,240,5.0,5.0,-999,-99.99,,,-99.99,,2013-03-27 13:53:00,
2013-03-27 07:32:00,43.0,-99.9,-100.00,West,262,5.0,5.0,-999,-99.99,,,-99.99,,2013-03-27 14:32:00,
2013-03-27 07:43:00,43.0,-99.9,-100.00,West,262,5.0,5.0,-999,-99.99,,,-99.99,,2013-03-27 14:43:00,
2013-03-27 07:52:00,43.0,-99.9,-100.00,West,262,5.0,5.0,-999,-99.99,,,-99.99,,2013-03-27 14:52:00,
2013-03-27 08:33:00,45.0,-99.9,-100.00,West,262,3.0,4.0,-999,-99.99,,,-99.99,,2013-03-27 15:33:00,
2013-03-27 08:43:00,45.0,-99.9,-100.00,West,262,3.0,4.0,-999,-99.99,,,-99.99,,2013-03-27 15:43:00,
2013-03-27 08:53:00,45.0,-99.9,-100.00,West,262,3.0,4.0,-999,-99.99,,,-99.99,,2013-03-27 15:53:00,
2013-03-27 09:10:00,44.0,-99.9,-100.00,NNW,331,2.0,2.0,-999,-99.99,,,-99.99,,2013-03-27 16:10:00,
2013-03-27 09:23:00,44.0,-99.9,-100.00,WSW,256,1.0,3.0,-999,-99.99,,,-99.99,,2013-03-27 16:23:00,
2013-03-27 09:33:00,46.0,-99.9,-100.00,NW,318,1.0,2.0,-999,-99.99,,,-99.99,,2013-03-27 16:33:00,
2013-03-27 09:42:00,46.0,-99.9,-100.00,NW,318,1.0,2.0,-999,-99.99,,,-99.99,,2013-03-27 16:42:00,
2013-03-27 09:52:00,44.0,-99.9,-100.00,NNW,331,2.0,2.0,-999,-99.99,,,-99.99,,2013-03-27 16:52:00,
2013-03-27 10:03:00,44.0,-99.9,-100.00,NNW,331,2.0,2.0,-999,-99.99,,,-99.99,,2013-03-27 17:03:00,
2013-03-27 10:10:00,47.0,-99.9,-100.00,NW,316,3.0,3.0,-999,-99.99,,,-99.99,,2013-03-27 17:10:00,
2013-03-27 10:23:00,46.0,-99.9,-100.00,NW,321,2.0,3.0,-999,-99.99,,,-99.99,,2013-03-27 17:23:00,
2013-03-27 10:33:00,47.0,-99.9,-100.00,WNW,300,3.0,4.0,-999,-99.99,,,-99.99,,2013-03-27 17:33:00,
2013-03-27 10:44:00,47.0,-99.9,-100.00,WNW,300,3.0,4.0,-999,-99.99,,,-99.99,,2013-03-27 17:44:00,
2013-03-27 10:53:00,47.0,-99.9,-100.00,NW,316,3.0,3.0,-999,-99.99,,,-99.99,,2013-03-27 17:53:00,
2013-03-27 11:03:00,47.0,-99.9,-100.00,NW,316,3.0,3.0,-999,-99.99,,,-99.99,,2013-03-27 18:03:00,
2013-03-27 11:20:00,49.0,-99.9,-100.00,NNW,346,3.0,3.0,-999,-99.99,,,-99.99,,2013-03-27 18:20:00,
2013-03-27 11:33:00,50.0,-99.9,-100.00,East,88,1.0,2.0,-999,-99.99,,,-99.99,,2013-03-27 18:33:00,
2013-03-27 11:42:00,50.0,-99.9,-100.00,East,88,1.0,2.0,-999,-99.99,,,-99.99,,2013-03-27 18:42:00,
2013-03-27 11:53:00,50.0,-99.9,-100.00,East,88,1.0,2.0,-999,-99.99,,,-99.99,,2013-03-27 18:53:00,
2013-03-27 12:03:00,49.0,-99.9,-100.00,NNW,346,3.0,3.0,-999,-99.99,,,-99.99,,2013-03-27 19:03:00,
2013-03-27 12:12:00,49.0,-99.9,-100.00,NNW,346,3.0,3.0,-999,-99.99,,,-99.99,,2013-03-27 19:12:00,
2013-03-27 12:32:00,54.0,-99.9,-100.00,WSW,238,0.0,3.0,-999,-99.99,,,-99.99,,2013-03-27 19:32:00,
2013-03-27 12:42:00,54.0,-99.9,-100.00,WSW,238,0.0,3.0,-999,-99.99,,,-99.99,,2013-03-27 19:42:00,
2013-03-27 12:52:00,54.0,-99.9,-100.00,WSW,238,0.0,3.0,-999,-99.99,,,-99.99,,2013-03-27 19:52:00,
2013-03-27 13:32:00,55.0,-99.9,-100.00,NW,320,1.0,2.0,-999,-99.99,,,-99.99,,2013-03-27 20:32:00,
2013-03-27 13:43:00,55.0,-99.9,-100.00,NW,320,1.0,2.0,-999,-99.99,,,-99.99,,2013-03-27 20:43:00,
2013-03-27 13:53:00,55.0,-99.9,-100.00,NW,320,1.0,2.0,-999,-99.99,,,-99.99,,2013-03-27 20:53:00,
2013-03-27 14:33:00,59.0,-99.9,-100.00,WNW,289,7.0,7.0,-999,-99.99,,,-99.99,,2013-03-27 21:33:00,
2013-03-27 14:44:00,59.0,-99.9,-100.00,WNW,289,7.0,7.0,-999,-99.99,,,-99.99,,2013-03-27 21:44:00,
2013-03-27 14:52:00,59.0,-99.9,-100.00,WNW,289,7.0,7.0,-999,-99.99,,,-99.99,,2013-03-27 21:52:00,
2013-03-27 15:33:00,59.0,-99.9,-100.00,NE,34,2.0,4.0,-999,-99.99,,,-99.99,,2013-03-27 22:33:00,
2013-03-27 15:43:00,59.0,-99.9,-100.00,NE,34,2.0,4.0,-999,-99.99,,,-99.99,,2013-03-27 22:43:00,
2013-03-27 15:53:00,59.0,-99.9,-100.00,ENE,64,2.0,4.0,-999,-99.99,,,-99.99,,2013-03-27 22:53:00,
2013-03-27 16:03:00,65.0,-99.9,-100.00,ENE,69,0.0,2.0,-999,-99.99,,,-99.99,,2013-03-27 23:03:00,
2013-03-27 16:12:00,65.0,-99.9,-100.00,ENE,69,0.0,2.0,-999,-99.99,,,-99.99,,2013-03-27 23:12:00,
2013-03-27 16:22:00,63.0,-99.9,-100.00,North,8,1.0,2.0,-999,-99.99,,,-99.99,,2013-03-27 23:22:00,
2013-03-27 16:32:00,59.0,-99.9,-100.00,WNW,296,1.0,3.0,-999,-99.99,,,-99.99,,2013-03-27 23:32:00,
2013-03-27 16:43:00,59.0,-99.9,-100.00,WNW,296,1.0,3.0,-999,-99.99,,,-99.99,,2013-03-27 23:43:00,
2013-03-27 16:52:00,59.0,-99.9,-100.00,WNW,296,1.0,3.0,-999,-99.99,,,-99.99,,2013-03-27 23:52:00,
2013-03-27 17:03:00,60.0,-99.9,-100.00,WSW,257,4.0,13.0,-999,-99.99,,,-99.99,,2013-03-28 00:03:00,
2013-03-27 17:10:00,61.0,-99.9,-100.00,WNW,300,0.0,2.0,-999,-99.99,,,-99.99,,2013-03-28 00:10:00,
2013-03-27 17:12:00,60.0,-99.9,-100.00,WSW,257,4.0,13.0,-999,-99.99,,,-99.99,,2013-03-28 00:12:00,
2013-03-27 17:23:00,59.0,-99.9,-100.00,West,264,6.0,9.0,-999,-99.99,,,-99.99,,2013-03-28 00:23:00,
2013-03-27 17:33:00,62.0,-99.9,-100.00,WNW,283,1.0,6.0,-999,-99.99,,,-99.99,,2013-03-28 00:33:00,
2013-03-27 17:43:00,62.0,-99.9,-100.00,WNW,283,1.0,6.0,-999,-99.99,,,-99.99,,2013-03-28 00:43:00,
2013-03-27 17:52:00,61.0,-99.9,-100.00,WNW,300,0.0,2.0,-999,-99.99,,,-99.99,,2013-03-28 00:52:00,
2013-03-27 18:03:00,61.0,-99.9,-100.00,WNW,300,0.0,2.0,-999,-99.99,,,-99.99,,2013-03-28 01:03:00,
2013-03-27 18:22:00,60.0,-99.9,-100.00,ENE,61,4.0,5.0,-999,-99.99,,,-99.99,,2013-03-28 01:22:00,
2013-03-27 18:32:00,58.0,-99.9,-100.00,SE,143,2.0,4.0,-999,-99.99,,,-99.99,,2013-03-28 01:32:00,
2013-03-27 18:43:00,58.0,-99.9,-100.00,SE,143,2.0,4.0,-999,-99.99,,,-99.99,,2013-03-28 01:43:00,
2013-03-27 18:53:00,58.0,-99.9,-100.00,SE,143,2.0,4.0,-999,-99.99,,,-99.99,,2013-03-28 01:53:00,
2013-03-27 19:23:00,59.0,-99.9,-100.00,ENE,58,1.0,1.0,-999,-99.99,,,-99.99,,2013-03-28 02:23:00,
2013-03-27 19:33:00,55.0,-99.9,-100.00,WNW,298,2.0,2.0,-999,-99.99,,,-99.99,,2013-03-28 02:33:00,
2013-03-27 19:42:00,55.0,-99.9,-100.00,WNW,298,2.0,2.0,-999,-99.99,,,-99.99,,2013-03-28 02:42:00,
2013-03-27 19:52:00,55.0,-99.9,-100.00,WNW,298,2.0,2.0,-999,-99.99,,,-99.99,,2013-03-28 02:52:00,
2013-03-27 20:33:00,54.0,-99.9,-100.00,SW,224,0.0,1.0,-999,-99.99,,,-99.99,,2013-03-28 03:33:00,
2013-03-27 20:43:00,54.0,-99.9,-100.00,SW,224,0.0,1.0,-999,-99.99,,,-99.99,,2013-03-28 03:43:00,
2013-03-27 20:53:00,54.0,-99.9,-100.00,SW,224,0.0,1.0,-999,-99.99,,,-99.99,,2013-03-28 03:53:00,
2013-03-27 21:03:00,54.0,-99.9,-100.00,SSW,193,1.0,2.0,-999,-99.99,,,-99.99,,2013-03-28 04:03:00,
2013-03-27 21:12:00,54.0,-99.9,-100.00,SSW,193,1.0,2.0,-999,-99.99,,,-99.99,,2013-03-28 04:12:00,
2013-03-27 21:23:00,52.0,-99.9,-100.00,WNW,283,4.0,7.0,-999,-99.99,,,-99.99,,2013-03-28 04:23:00,
2013-03-27 21:32:00,54.0,-99.9,-100.00,West,263,2.0,6.0,-999,-99.99,,,-99.99,,2013-03-28 04:32:00,
2013-03-27 21:42:00,54.0,-99.9,-100.00,West,263,2.0,6.0,-999,-99.99,,,-99.99,,2013-03-28 04:42:00,
2013-03-27 21:53:00,54.0,-99.9,-100.00,West,263,2.0,6.0,-999,-99.99,,,-99.99,,2013-03-28 04:53:00,
2013-03-27 22:10:00,51.0,-99.9,-100.00,WSW,244,1.0,2.0,-999,-99.99,,,-99.99,,2013-03-28 05:10:00,
2013-03-27 22:33:00,50.0,-99.9,-100.00,West,272,2.0,3.0,-999,-99.99,,,-99.99,,2013-03-28 05:33:00,
2013-03-27 22:43:00,50.0,-99.9,-100.00,West,272,2.0,3.0,-999,-99.99,,,-99.99,,2013-03-28 05:43:00,
2013-03-27 22:52:00,51.0,-99.9,-100.00,WSW,244,1.0,2.0,-999,-99.99,,,-99.99,,2013-03-28 05:52:00,
2013-03-27 23:02:00,51.0,-99.9,-100.00,WSW,244,1.0,2.0,-999,-99.99,,,-99.99,,2013-03-28 06:02:00,
2013-03-27 23:33:00,50.0,-99.9,-100.00,WSW,238,3.0,4.0,-999,-99.99,,,-99.99,,2013-03-28 06:33:00,
2013-03-27 23:43:00,50.0,-99.9,-100.00,WSW,238,3.0,4.0,-999,-99.99,,,-99.99,,2013-03-28 06:43:00,
2013-03-27 23:52:00,50.0,-99.9,-100.00,WSW,238,3.0,4.0,-999,-99.99,,,-99.99,,2013-03-28 06:52:00,